createdAt,value
2018-03-30T00:00:35.689Z,91.24
2018-03-30T00:02:28.790Z,90.95
2018-03-30T00:03:28.743Z,91.05
2018-03-30T00:05:21.854Z,91.24
2018-03-30T00:06:21.803Z,91.14
2018-03-30T00:08:14.798Z,90.38
2018-03-30T00:09:14.757Z,90.57
2018-03-30T00:11:07.802Z,90.57
2018-03-30T00:12:08.697Z,90.38
2018-03-30T00:13:07.722Z,90.19
2018-03-30T00:15:00.725Z,90.48
2018-03-30T00:16:00.691Z,91.14
2018-03-30T00:17:54.210Z,91.42
2018-03-30T00:18:54.177Z,91.52
2018-03-30T00:20:47.151Z,90.76
2018-03-30T00:21:47.112Z,90.19
2018-03-30T00:23:40.066Z,91.33
2018-03-30T00:24:40.094Z,91.33
2018-03-30T00:26:33.077Z,91.52
2018-03-30T00:27:33.035Z,91.24
2018-03-30T00:29:26.493Z,91.80
2018-03-30T00:30:26.088Z,91.61
2018-03-30T00:32:20.588Z,91.90
2018-03-30T00:33:19.090Z,92.09
2018-03-30T00:35:12.112Z,91.90
2018-03-30T00:36:12.066Z,91.90
2018-03-30T00:38:04.975Z,92.09
2018-03-30T00:39:04.963Z,91.80
2018-03-30T00:40:57.981Z,92.09
2018-03-30T00:41:57.909Z,91.80
2018-03-30T00:43:50.881Z,91.99
2018-03-30T00:44:50.868Z,91.99
2018-03-30T00:46:44.843Z,92.38
2018-03-30T00:47:43.822Z,91.90
2018-03-30T00:49:36.783Z,92.09
2018-03-30T00:50:36.803Z,91.99
2018-03-30T00:52:30.244Z,91.80
2018-03-30T00:53:29.855Z,91.42
2018-03-30T00:55:23.538Z,91.80
2018-03-30T00:56:25.007Z,91.71
2018-03-30T00:58:15.686Z,91.99
2018-03-30T00:59:15.685Z,91.90
2018-03-30T01:01:08.627Z,91.61
2018-03-30T01:02:08.613Z,91.71
2018-03-30T01:04:02.559Z,91.71
2018-03-30T01:05:01.584Z,91.52
2018-03-30T01:06:55.036Z,91.33
2018-03-30T01:07:54.535Z,91.61
2018-03-30T01:09:47.489Z,91.52
2018-03-30T01:10:47.489Z,91.80
2018-03-30T01:12:40.472Z,91.42
2018-03-30T01:13:40.435Z,91.71
2018-03-30T01:15:33.411Z,91.42
2018-03-30T01:16:33.398Z,91.24
2018-03-30T01:18:26.405Z,91.42
2018-03-30T01:19:26.363Z,91.61
2018-03-30T01:21:19.469Z,91.61
2018-03-30T01:22:19.409Z,91.33
2018-03-30T01:24:12.402Z,91.24
2018-03-30T01:25:12.361Z,90.86
2018-03-30T01:27:05.381Z,91.42
2018-03-30T01:28:05.328Z,91.33
2018-03-30T01:29:58.350Z,91.05
2018-03-30T01:30:58.279Z,91.24
2018-03-30T01:32:51.284Z,91.05
2018-03-30T01:33:51.250Z,91.42
2018-03-30T01:35:44.360Z,91.00
2018-03-30T01:36:44.301Z,91.24
2018-03-30T01:38:37.293Z,91.24
2018-03-30T01:39:37.275Z,91.28
2018-03-30T01:41:30.295Z,91.42
2018-03-30T01:42:30.257Z,91.38
2018-03-30T01:44:23.202Z,91.19
2018-03-30T01:45:23.174Z,91.38
2018-03-30T01:47:16.182Z,91.19
2018-03-30T01:48:16.148Z,90.81
2018-03-30T01:50:09.110Z,90.81
2018-03-30T01:51:09.103Z,91.28
2018-03-30T01:53:02.094Z,91.52
2018-03-30T01:54:02.097Z,90.62
2018-03-30T01:55:55.025Z,90.86
2018-03-30T01:56:54.994Z,91.33
2018-03-30T01:58:48.677Z,90.95
2018-03-30T01:59:47.952Z,90.67
2018-03-30T02:01:40.934Z,90.86
2018-03-30T02:02:40.905Z,90.29
2018-03-30T02:04:33.936Z,90.10
2018-03-30T02:05:33.884Z,90.24
2018-03-30T02:07:26.841Z,91.19
2018-03-30T02:08:26.858Z,90.62
2018-03-30T02:10:19.830Z,90.24
2018-03-30T02:11:19.799Z,90.72
2018-03-30T02:13:12.762Z,90.62
2018-03-30T02:14:12.774Z,90.10
2018-03-30T02:16:05.737Z,90.67
2018-03-30T02:17:05.694Z,90.48
2018-03-30T02:18:58.657Z,90.48
2018-03-30T02:19:58.674Z,90.10
2018-03-30T02:21:54.614Z,90.19
2018-03-30T02:22:54.588Z,90.29
2018-03-30T02:24:47.556Z,90.48
2018-03-30T02:25:47.545Z,90.57
2018-03-30T02:27:40.577Z,90.29
2018-03-30T02:28:40.509Z,90.10
2018-03-30T02:30:33.567Z,89.62
2018-03-30T02:31:33.556Z,89.34
2018-03-30T02:33:27.023Z,89.81
2018-03-30T02:34:26.518Z,89.72
2018-03-30T02:36:19.486Z,89.34
2018-03-30T02:37:19.489Z,89.34
2018-03-30T02:39:12.469Z,89.43
2018-03-30T02:40:12.430Z,89.25
2018-03-30T02:42:05.389Z,89.25
2018-03-30T02:43:05.398Z,89.25
2018-03-30T02:44:58.396Z,89.15
2018-03-30T02:45:58.352Z,88.96
2018-03-30T02:47:51.305Z,89.43
2018-03-30T02:48:52.206Z,89.34
2018-03-30T02:50:44.302Z,89.06
2018-03-30T02:51:44.261Z,88.87
2018-03-30T02:53:37.231Z,88.58
2018-03-30T02:54:37.242Z,88.01
2018-03-30T02:56:30.218Z,87.92
2018-03-30T02:57:30.188Z,88.01
2018-03-30T02:59:23.140Z,88.20
2018-03-30T03:00:23.122Z,88.29
2018-03-30T03:02:16.125Z,88.39
2018-03-30T03:03:16.093Z,88.29
2018-03-30T03:05:09.073Z,88.58
2018-03-30T03:06:09.041Z,88.87
2018-03-30T03:08:02.062Z,88.68
2018-03-30T03:09:02.005Z,88.29
2018-03-30T03:10:54.968Z,88.01
2018-03-30T03:11:54.954Z,88.29
2018-03-30T03:13:47.946Z,88.10
2018-03-30T03:14:47.914Z,88.29
2018-03-30T03:16:40.900Z,88.10
2018-03-30T03:17:40.907Z,88.10
2018-03-30T03:19:36.307Z,88.01
2018-03-30T03:20:33.839Z,88.20
2018-03-30T03:22:26.848Z,89.06
2018-03-30T03:23:26.789Z,88.29
2018-03-30T03:25:19.991Z,88.68
2018-03-30T03:26:19.742Z,88.29
2018-03-30T03:28:13.673Z,88.20
2018-03-30T03:29:12.711Z,88.58
2018-03-30T03:31:05.705Z,88.39
2018-03-30T03:32:05.664Z,87.92
2018-03-30T03:33:59.131Z,88.01
2018-03-30T03:34:59.599Z,88.29
2018-03-30T03:36:51.630Z,88.68
2018-03-30T03:37:51.591Z,88.39
2018-03-30T03:39:44.586Z,88.48
2018-03-30T03:40:44.537Z,88.48
2018-03-30T03:42:38.044Z,88.01
2018-03-30T03:43:37.683Z,88.20
2018-03-30T03:45:30.449Z,88.29
2018-03-30T03:46:30.452Z,88.10
2018-03-30T03:48:23.426Z,88.29
2018-03-30T03:49:23.415Z,88.39
2018-03-30T03:51:16.361Z,88.20
2018-03-30T03:52:16.362Z,88.20
2018-03-30T03:54:09.397Z,88.10
2018-03-30T03:55:09.364Z,88.20
2018-03-30T03:57:04.303Z,88.20
2018-03-30T03:58:02.370Z,88.20
2018-03-30T03:59:55.290Z,88.29
2018-03-30T04:00:55.309Z,88.29
2018-03-30T04:02:48.197Z,88.01
2018-03-30T04:03:48.187Z,88.10
2018-03-30T04:05:43.019Z,88.20
2018-03-30T04:06:41.165Z,88.01
2018-03-30T04:08:34.618Z,88.48
2018-03-30T04:09:35.335Z,89.15
2018-03-30T04:11:27.084Z,88.39
2018-03-30T04:12:27.078Z,89.06
2018-03-30T04:14:20.191Z,88.77
2018-03-30T04:15:20.023Z,88.68
2018-03-30T04:16:20.023Z,88.87
2018-03-30T04:18:13.013Z,88.01
2018-03-30T04:19:12.990Z,88.29
2018-03-30T04:21:05.948Z,87.92
2018-03-30T04:22:05.946Z,88.10
2018-03-30T04:23:59.907Z,88.39
2018-03-30T04:24:59.420Z,88.10
2018-03-30T04:26:53.272Z,88.10
2018-03-30T04:27:53.322Z,88.29
2018-03-30T04:29:46.128Z,88.10
2018-03-30T04:30:46.050Z,88.10
2018-03-30T04:32:39.033Z,88.10
2018-03-30T04:33:38.992Z,88.20
2018-03-30T04:35:32.468Z,88.48
2018-03-30T04:36:31.964Z,88.29
2018-03-30T04:38:24.998Z,88.39
2018-03-30T04:39:24.908Z,88.10
2018-03-30T04:41:17.968Z,88.01
2018-03-30T04:42:17.882Z,88.10
2018-03-30T04:44:10.859Z,88.29
2018-03-30T04:45:10.822Z,88.29
2018-03-30T04:47:04.434Z,88.77
2018-03-30T04:48:03.785Z,88.68
2018-03-30T04:49:58.247Z,88.39
2018-03-30T04:50:56.744Z,88.68
2018-03-30T04:52:49.724Z,88.68
2018-03-30T04:53:49.708Z,88.96
2018-03-30T04:55:42.725Z,88.96
2018-03-30T04:56:42.696Z,88.96
2018-03-30T04:58:35.626Z,88.68
2018-03-30T04:59:35.627Z,88.77
2018-03-30T05:01:28.612Z,88.77
2018-03-30T05:02:28.583Z,88.87
2018-03-30T05:04:21.560Z,89.43
2018-03-30T05:05:21.537Z,89.06
2018-03-30T05:07:14.579Z,89.06
2018-03-30T05:08:14.501Z,88.39
2018-03-30T05:10:07.942Z,88.01
2018-03-30T05:11:08.435Z,88.39
2018-03-30T05:13:01.430Z,88.39
2018-03-30T05:14:00.415Z,87.92
2018-03-30T05:15:54.344Z,87.92
2018-03-30T05:16:53.384Z,88.29
2018-03-30T05:18:58.348Z,88.10
2018-03-30T05:19:58.009Z,87.73
2018-03-30T05:21:50.950Z,87.63
2018-03-30T05:22:50.942Z,87.73
2018-03-30T05:24:43.925Z,87.77
2018-03-30T05:25:43.905Z,87.68
2018-03-30T05:27:36.856Z,87.87
2018-03-30T05:28:37.843Z,87.20
2018-03-30T05:30:29.875Z,86.91
2018-03-30T05:31:29.808Z,87.01
2018-03-30T05:33:22.761Z,87.20
2018-03-30T05:34:22.877Z,87.01
2018-03-30T05:36:15.753Z,87.68
2018-03-30T05:37:15.716Z,87.20
2018-03-30T05:39:08.685Z,87.01
2018-03-30T05:40:08.819Z,86.72
2018-03-30T05:42:01.706Z,85.87
2018-03-30T05:43:01.649Z,85.40
2018-03-30T05:44:54.611Z,85.49
2018-03-30T05:45:54.593Z,85.02
2018-03-30T05:47:48.856Z,85.72
2018-03-30T05:48:49.576Z,85.53
2018-03-30T05:50:42.528Z,85.44
2018-03-30T05:51:40.603Z,84.59
2018-03-30T05:53:33.600Z,85.16
2018-03-30T05:54:34.476Z,85.06
2018-03-30T05:56:28.453Z,84.59
2018-03-30T05:57:26.432Z,84.30
2018-03-30T05:59:19.473Z,84.59
2018-03-30T06:00:19.380Z,84.78
2018-03-30T06:02:13.341Z,84.49
2018-03-30T06:03:12.457Z,84.59
2018-03-30T06:05:05.373Z,84.97
2018-03-30T06:06:05.342Z,85.16
2018-03-30T06:07:58.284Z,84.68
2018-03-30T06:08:58.253Z,84.59
2018-03-30T06:10:51.254Z,84.59
2018-03-30T06:11:51.225Z,84.49
2018-03-30T06:13:44.189Z,84.59
2018-03-30T06:14:44.175Z,84.59
2018-03-30T06:16:37.188Z,84.11
2018-03-30T06:17:37.132Z,84.25
2018-03-30T06:19:30.104Z,83.26
2018-03-30T06:20:30.106Z,83.20
2018-03-30T06:22:23.084Z,83.20
2018-03-30T06:23:23.072Z,83.11
2018-03-30T06:24:23.037Z,83.11
2018-03-30T06:25:23.097Z,83.11
2018-03-30T06:27:16.060Z,83.49
2018-03-30T06:28:16.037Z,83.20
2018-03-30T06:30:08.982Z,82.16
2018-03-30T06:31:08.994Z,82.16
2018-03-30T06:33:01.973Z,81.78
2018-03-30T06:34:01.939Z,81.59
2018-03-30T06:35:54.896Z,81.78
2018-03-30T06:36:54.911Z,81.78
2018-03-30T06:38:47.882Z,81.97
2018-03-30T06:39:47.848Z,81.97
2018-03-30T06:41:40.803Z,82.16
2018-03-30T06:42:40.811Z,81.87
2018-03-30T06:44:33.788Z,81.59
2018-03-30T06:45:33.763Z,81.12
2018-03-30T06:47:26.727Z,80.45
2018-03-30T06:48:26.727Z,80.74
2018-03-30T06:50:19.703Z,80.35
2018-03-30T06:51:19.683Z,80.74
2018-03-30T06:53:12.664Z,80.45
2018-03-30T06:54:12.626Z,81.02
2018-03-30T06:56:05.621Z,80.74
2018-03-30T06:57:05.587Z,80.35
2018-03-30T06:58:58.549Z,80.93
2018-03-30T06:59:58.540Z,81.40
2018-03-30T07:01:51.533Z,81.68
2018-03-30T07:02:51.497Z,81.12
2018-03-30T07:04:44.471Z,81.78
2018-03-30T07:05:44.465Z,81.59
2018-03-30T07:07:37.478Z,82.54
2018-03-30T07:08:37.419Z,82.35
2018-03-30T07:10:30.381Z,82.26
2018-03-30T07:11:30.376Z,81.97
2018-03-30T07:13:23.415Z,81.21
2018-03-30T07:14:23.346Z,81.02
2018-03-30T07:16:16.311Z,80.40
2018-03-30T07:17:16.417Z,80.45
2018-03-30T07:19:11.117Z,81.02
2018-03-30T07:20:10.638Z,81.12
2018-03-30T07:22:06.293Z,81.02
2018-03-30T07:23:05.284Z,80.93
2018-03-30T07:24:04.370Z,81.02
2018-03-30T07:25:04.976Z,80.93
2018-03-30T07:26:02.411Z,80.45
2018-03-30T07:27:02.474Z,80.77
2018-03-30T07:28:04.286Z,80.40
2018-03-30T07:29:02.477Z,80.30
2018-03-30T07:30:02.350Z,79.54
2018-03-30T07:31:04.228Z,79.44
2018-03-30T07:32:02.261Z,78.69
2018-03-30T07:33:02.270Z,78.97
2018-03-30T07:34:02.300Z,78.53
2018-03-30T07:35:02.294Z,77.77
2018-03-30T07:36:02.247Z,77.68
2018-03-30T07:37:02.247Z,77.34
2018-03-30T07:38:02.355Z,76.39
2018-03-30T07:39:02.260Z,75.28
2018-03-30T07:40:02.331Z,72.02
2018-03-30T07:41:02.273Z,70.34
2018-03-30T07:42:02.286Z,68.05
2018-03-30T07:43:02.275Z,68.05
2018-03-30T07:44:02.357Z,67.86
2018-03-30T07:45:02.284Z,66.41
2018-03-30T07:46:02.278Z,62.68
2018-03-30T07:47:02.293Z,59.11
2018-03-30T07:48:02.296Z,55.82
2018-03-30T07:49:02.302Z,54.07
2018-03-30T07:50:02.312Z,55.13
2018-03-30T07:51:02.307Z,56.79
2018-03-30T07:52:02.360Z,57.33
2018-03-30T07:53:02.318Z,58.64
2018-03-30T07:54:02.329Z,58.80
2018-03-30T07:55:02.367Z,61.16
2018-03-30T07:56:02.346Z,61.35
2018-03-30T07:57:02.350Z,62.21
2018-03-30T07:58:02.353Z,62.21
2018-03-30T07:59:02.382Z,62.11
2018-03-30T08:00:02.376Z,62.40
2018-03-30T08:01:02.430Z,61.22
2018-03-30T08:02:02.367Z,58.95
2018-03-30T08:03:02.389Z,56.88
2018-03-30T08:04:02.385Z,55.98
2018-03-30T08:05:02.398Z,53.45
2018-03-30T08:06:02.412Z,53.02
2018-03-30T08:07:02.412Z,52.97
2018-03-30T08:08:02.413Z,51.89
2018-03-30T08:09:03.243Z,52.44
2018-03-30T08:10:02.432Z,52.23
2018-03-30T08:11:02.441Z,50.70
2018-03-30T08:12:05.918Z,50.65
2018-03-30T08:13:02.456Z,52.99
2018-03-30T08:14:02.467Z,54.75
2018-03-30T08:15:02.730Z,56.92
2018-03-30T08:16:02.512Z,58.33
2018-03-30T08:17:02.525Z,59.92
2018-03-30T08:18:02.522Z,60.97
2018-03-30T08:19:02.507Z,62.21
2018-03-30T08:20:03.220Z,63.13
2018-03-30T08:21:02.534Z,63.51
2018-03-30T08:22:02.546Z,64.72
2018-03-30T08:23:02.542Z,65.77
2018-03-30T08:24:02.553Z,65.86
2018-03-30T08:25:02.639Z,65.33
2018-03-30T08:26:02.574Z,63.54
2018-03-30T08:27:02.583Z,62.46
2018-03-30T08:28:02.585Z,63.51
2018-03-30T08:29:02.586Z,63.99
2018-03-30T08:30:02.616Z,64.56
2018-03-30T08:31:02.604Z,65.04
2018-03-30T08:32:02.616Z,65.48
2018-03-30T08:33:02.616Z,65.67
2018-03-30T08:34:02.628Z,66.34
2018-03-30T08:35:02.634Z,66.72
2018-03-30T08:36:02.637Z,66.91
2018-03-30T08:37:02.647Z,67.29
2018-03-30T08:38:02.655Z,66.85
2018-03-30T08:39:02.660Z,66.66
2018-03-30T08:40:02.671Z,65.80
2018-03-30T08:41:02.671Z,65.33
2018-03-30T08:42:02.676Z,65.33
2018-03-30T08:43:02.683Z,65.70
2018-03-30T08:44:02.686Z,65.89
2018-03-30T08:45:02.715Z,66.66
2018-03-30T08:46:02.694Z,66.94
2018-03-30T08:47:02.717Z,66.94
2018-03-30T08:48:02.715Z,66.66
2018-03-30T08:49:02.718Z,66.66
2018-03-30T08:50:02.724Z,66.75
2018-03-30T08:51:03.701Z,66.47
2018-03-30T08:52:02.895Z,66.56
2018-03-30T08:53:02.736Z,65.61
2018-03-30T08:54:02.746Z,66.47
2018-03-30T08:55:03.008Z,66.38
2018-03-30T08:56:02.755Z,65.74
2018-03-30T08:57:02.763Z,65.26
2018-03-30T08:58:02.769Z,64.65
2018-03-30T08:59:02.810Z,65.33
2018-03-30T09:00:02.787Z,65.80
2018-03-30T09:01:02.995Z,65.52
2018-03-30T09:02:02.793Z,66.38
2018-03-30T09:03:02.795Z,65.93
2018-03-30T09:04:02.821Z,65.36
2018-03-30T09:05:02.816Z,65.23
2018-03-30T09:06:02.816Z,65.70
2018-03-30T09:07:02.824Z,65.80
2018-03-30T09:08:02.835Z,65.93
2018-03-30T09:09:02.845Z,66.38
2018-03-30T09:10:02.838Z,66.47
2018-03-30T09:11:02.859Z,66.60
2018-03-30T09:12:02.896Z,66.56
2018-03-30T09:13:02.927Z,66.94
2018-03-30T09:14:03.818Z,66.98
2018-03-30T09:15:03.243Z,67.14
2018-03-30T09:16:02.966Z,66.94
2018-03-30T09:17:05.916Z,66.60
2018-03-30T09:18:02.888Z,67.04
2018-03-30T09:19:03.235Z,67.04
2018-03-30T09:20:02.901Z,66.85
2018-03-30T09:21:02.922Z,66.88
2018-03-30T09:22:02.963Z,66.69
2018-03-30T09:23:02.906Z,65.96
2018-03-30T09:24:02.933Z,64.18
2018-03-30T09:25:02.917Z,61.69
2018-03-30T09:26:02.953Z,59.05
2018-03-30T09:27:02.964Z,57.58
2018-03-30T09:28:02.986Z,58.06
2018-03-30T09:29:02.949Z,58.09
2018-03-30T09:30:02.998Z,56.87
2018-03-30T09:31:03.001Z,55.46
2018-03-30T09:32:02.971Z,54.79
2018-03-30T09:33:03.007Z,55.27
2018-03-30T09:34:03.012Z,55.18
2018-03-30T09:35:02.992Z,55.73
2018-03-30T09:36:03.020Z,55.91
2018-03-30T09:37:03.022Z,56.56
2018-03-30T09:38:03.030Z,57.04
2018-03-30T09:39:03.045Z,56.68
2018-03-30T09:40:03.093Z,56.75
2018-03-30T09:41:03.092Z,57.51
2018-03-30T09:42:03.066Z,57.48
2018-03-30T09:43:03.076Z,58.34
2018-03-30T09:44:03.084Z,58.15
2018-03-30T09:45:03.116Z,57.97
2018-03-30T09:46:03.103Z,57.97
2018-03-30T09:47:03.112Z,57.68
2018-03-30T09:48:03.120Z,57.58
2018-03-30T09:49:03.139Z,57.39
2018-03-30T09:50:03.141Z,57.01
2018-03-30T09:51:03.741Z,56.59
2018-03-30T09:52:03.165Z,56.84
2018-03-30T09:53:03.171Z,56.37
2018-03-30T09:54:03.207Z,56.56
2018-03-30T09:55:08.931Z,57.23
2018-03-30T09:56:08.918Z,56.84
2018-03-30T09:58:01.880Z,56.46
2018-03-30T09:59:01.873Z,56.20
2018-03-30T10:00:55.392Z,54.00
2018-03-30T10:01:54.825Z,53.26
2018-03-30T10:03:47.781Z,51.78
2018-03-30T10:04:47.791Z,51.20
2018-03-30T10:06:40.774Z,48.35
2018-03-30T10:07:40.805Z,48.52
2018-03-30T10:08:40.868Z,48.71
2018-03-30T10:09:40.763Z,49.33
2018-03-30T10:10:40.817Z,49.71
2018-03-30T10:11:40.848Z,49.55
2018-03-30T10:12:40.830Z,48.80
2018-03-30T10:13:40.884Z,48.59
2018-03-30T10:14:40.856Z,49.00
2018-03-30T10:15:40.871Z,48.90
2018-03-30T10:16:41.738Z,48.43
2018-03-30T10:17:41.058Z,47.87
2018-03-30T10:18:40.892Z,46.81
2018-03-30T10:19:40.905Z,46.72
2018-03-30T10:20:40.924Z,45.95
2018-03-30T10:21:40.927Z,45.95
2018-03-30T10:22:40.947Z,46.53
2018-03-30T10:23:40.953Z,46.22
2018-03-30T10:24:40.988Z,47.17
2018-03-30T10:25:40.996Z,47.08
2018-03-30T10:26:41.000Z,46.50
2018-03-30T10:27:41.025Z,47.01
2018-03-30T10:28:41.040Z,46.22
2018-03-30T10:29:41.076Z,47.27
2018-03-30T10:30:41.101Z,46.34
2018-03-30T10:31:41.079Z,46.03
2018-03-30T10:32:41.099Z,47.46
2018-03-30T10:33:41.105Z,46.41
2018-03-30T10:34:41.123Z,46.60
2018-03-30T10:35:41.184Z,46.12
2018-03-30T10:36:41.156Z,45.74
2018-03-30T10:37:41.204Z,46.12
2018-03-30T10:38:41.183Z,45.62
2018-03-30T10:39:41.229Z,46.00
2018-03-30T10:40:41.245Z,47.13
2018-03-30T10:41:41.236Z,48.09
2018-03-30T10:42:41.242Z,48.75
2018-03-30T10:43:41.280Z,48.75
2018-03-30T10:44:41.281Z,49.43
2018-03-30T10:45:42.305Z,49.52
2018-03-30T10:46:41.300Z,49.05
2018-03-30T10:47:41.321Z,48.88
2018-03-30T10:48:41.418Z,48.85
2018-03-30T10:49:41.375Z,49.26
2018-03-30T10:50:41.504Z,47.82
2018-03-30T10:51:41.414Z,47.34
2018-03-30T10:52:41.424Z,47.32
2018-03-30T10:53:41.430Z,48.09
2018-03-30T10:54:41.447Z,48.57
2018-03-30T10:55:41.457Z,48.38
2018-03-30T10:56:41.533Z,48.95
2018-03-30T10:57:41.472Z,48.28
2018-03-30T10:58:45.200Z,48.28
2018-03-30T10:59:41.622Z,49.02
2018-03-30T11:00:41.510Z,48.54
2018-03-30T11:01:41.522Z,48.64
2018-03-30T11:02:41.559Z,48.44
2018-03-30T11:03:41.720Z,48.57
2018-03-30T11:04:41.582Z,47.22
2018-03-30T11:05:41.613Z,45.81
2018-03-30T11:06:41.644Z,44.66
2018-03-30T11:07:41.621Z,43.99
2018-03-30T11:08:42.113Z,44.01
2018-03-30T11:09:41.784Z,42.29
2018-03-30T11:10:42.112Z,41.78
2018-03-30T11:11:41.672Z,42.07
2018-03-30T11:12:45.621Z,42.47
2018-03-30T11:13:41.681Z,41.61
2018-03-30T11:14:41.767Z,41.50
2018-03-30T11:15:41.711Z,41.50
2018-03-30T11:16:41.781Z,41.31
2018-03-30T11:17:41.832Z,41.50
2018-03-30T11:18:41.795Z,41.88
2018-03-30T11:19:41.780Z,41.21
2018-03-30T11:20:41.821Z,41.50
2018-03-30T11:21:41.803Z,42.07
2018-03-30T11:22:41.827Z,41.11
2018-03-30T11:23:42.776Z,41.19
2018-03-30T11:24:41.853Z,41.86
2018-03-30T11:25:41.854Z,41.86
2018-03-30T11:26:41.859Z,42.44
2018-03-30T11:27:41.868Z,42.82
2018-03-30T11:28:41.872Z,42.44
2018-03-30T11:29:43.449Z,42.14
2018-03-30T11:30:42.685Z,42.14
2018-03-30T11:31:42.436Z,42.24
2018-03-30T11:32:43.020Z,42.34
2018-03-30T11:33:41.924Z,42.27
2018-03-30T11:34:42.974Z,41.88
2018-03-30T11:35:42.782Z,41.61
2018-03-30T11:36:42.536Z,40.73
2018-03-30T11:37:42.896Z,39.87
2018-03-30T11:38:42.035Z,39.87
2018-03-30T11:39:42.869Z,39.58
2018-03-30T11:40:42.016Z,39.58
2018-03-30T11:41:42.022Z,39.10
2018-03-30T11:42:42.044Z,39.10
2018-03-30T11:43:42.042Z,38.98
2018-03-30T11:44:42.150Z,39.83
2018-03-30T11:45:42.094Z,40.12
2018-03-30T11:46:42.086Z,41.05
2018-03-30T11:47:42.106Z,41.15
2018-03-30T11:48:42.107Z,41.07
2018-03-30T11:49:42.108Z,40.69
2018-03-30T11:50:42.183Z,40.14
2018-03-30T11:51:42.142Z,39.47
2018-03-30T11:52:42.140Z,38.22
2018-03-30T11:53:42.146Z,37.47
2018-03-30T11:54:42.156Z,37.93
2018-03-30T11:55:42.171Z,37.85
2018-03-30T11:56:42.193Z,39.08
2018-03-30T11:57:42.199Z,39.37
2018-03-30T11:58:42.205Z,39.85
2018-03-30T11:59:42.316Z,40.04
2018-03-30T12:00:42.230Z,40.33
2018-03-30T12:01:42.242Z,41.27
2018-03-30T12:02:42.258Z,41.46
2018-03-30T12:03:42.265Z,42.51
2018-03-30T12:04:42.283Z,43.06
2018-03-30T12:05:42.291Z,43.66
2018-03-30T12:06:42.289Z,43.56
2018-03-30T12:07:42.317Z,42.51
2018-03-30T12:08:42.319Z,42.77
2018-03-30T12:09:42.361Z,43.16
2018-03-30T12:10:42.353Z,43.43
2018-03-30T12:11:42.364Z,44.09
2018-03-30T12:12:42.458Z,44.86
2018-03-30T12:13:42.378Z,44.38
2018-03-30T12:14:42.400Z,44.76
2018-03-30T12:15:42.497Z,44.88
2018-03-30T12:16:42.410Z,44.38
2018-03-30T12:17:42.473Z,44.95
2018-03-30T12:18:42.414Z,44.98
2018-03-30T12:19:42.420Z,44.95
2018-03-30T12:20:42.426Z,45.15
2018-03-30T12:21:42.438Z,45.24
2018-03-30T12:22:42.445Z,45.62
2018-03-30T12:23:42.448Z,45.81
2018-03-30T12:24:42.467Z,45.91
2018-03-30T12:25:42.473Z,44.57
2018-03-30T12:26:42.483Z,43.90
2018-03-30T12:27:42.486Z,43.83
2018-03-30T12:28:42.487Z,43.43
2018-03-30T12:29:42.496Z,43.73
2018-03-30T12:30:42.498Z,44.21
2018-03-30T12:31:42.503Z,44.21
2018-03-30T12:32:42.519Z,43.92
2018-03-30T12:33:42.525Z,44.98
2018-03-30T12:34:42.588Z,46.03
2018-03-30T12:35:42.540Z,45.62
2018-03-30T12:36:42.571Z,46.77
2018-03-30T12:37:42.551Z,46.96
2018-03-30T12:38:42.560Z,46.98
2018-03-30T12:39:42.570Z,46.96
2018-03-30T12:40:42.571Z,46.96
2018-03-30T12:41:42.662Z,46.96
2018-03-30T12:42:42.590Z,46.20
2018-03-30T12:43:42.698Z,46.30
2018-03-30T12:44:42.643Z,45.72
2018-03-30T12:45:42.612Z,45.53
2018-03-30T12:46:42.732Z,45.91
2018-03-30T12:47:42.616Z,45.91
2018-03-30T12:48:42.724Z,46.39
2018-03-30T12:49:42.643Z,46.30
2018-03-30T12:50:42.641Z,46.20
2018-03-30T12:51:42.646Z,46.20
2018-03-30T12:52:42.660Z,44.88
2018-03-30T12:53:42.667Z,44.09
2018-03-30T12:54:42.668Z,43.90
2018-03-30T12:55:42.708Z,43.80
2018-03-30T12:56:42.683Z,43.62
2018-03-30T12:57:42.690Z,43.14
2018-03-30T12:58:42.693Z,42.37
2018-03-30T12:59:42.701Z,41.41
2018-03-30T13:00:42.706Z,42.37
2018-03-30T13:01:42.714Z,42.66
2018-03-30T13:02:42.721Z,43.14
2018-03-30T13:03:42.723Z,43.23
2018-03-30T13:04:42.790Z,43.62
2018-03-30T13:05:42.790Z,43.80
2018-03-30T13:06:42.740Z,44.09
2018-03-30T13:07:42.753Z,44.26
2018-03-30T13:08:42.756Z,44.55
2018-03-30T13:09:42.762Z,44.65
2018-03-30T13:10:42.768Z,44.95
2018-03-30T13:11:42.792Z,44.76
2018-03-30T13:12:42.786Z,45.12
2018-03-30T13:13:42.791Z,45.53
2018-03-30T13:14:42.794Z,45.91
2018-03-30T13:15:42.798Z,45.91
2018-03-30T13:16:42.814Z,45.91
2018-03-30T13:17:42.819Z,45.91
2018-03-30T13:18:42.815Z,46.01
2018-03-30T13:19:42.843Z,45.81
2018-03-30T13:20:42.837Z,45.91
2018-03-30T13:21:42.841Z,46.20
2018-03-30T13:22:42.861Z,46.01
2018-03-30T13:23:42.856Z,45.72
2018-03-30T13:24:42.918Z,45.62
2018-03-30T13:25:42.859Z,45.91
2018-03-30T13:26:42.869Z,45.91
2018-03-30T13:27:42.876Z,45.55
2018-03-30T13:28:42.979Z,45.94
2018-03-30T13:29:42.892Z,45.74
2018-03-30T13:30:42.961Z,45.07
2018-03-30T13:31:42.913Z,44.98
2018-03-30T13:32:43.014Z,45.26
2018-03-30T13:33:42.909Z,45.07
2018-03-30T13:34:42.932Z,44.79
2018-03-30T13:35:42.925Z,44.40
2018-03-30T13:36:42.938Z,44.69
2018-03-30T13:38:35.926Z,44.69
2018-03-30T13:39:35.901Z,44.50
2018-03-30T13:41:28.895Z,44.40
2018-03-30T13:42:28.854Z,45.05
2018-03-30T13:44:22.349Z,45.62
2018-03-30T13:45:21.818Z,45.72
2018-03-30T13:47:14.780Z,45.72
2018-03-30T13:48:14.784Z,45.05
2018-03-30T13:49:14.791Z,44.38
2018-03-30T13:50:14.802Z,44.95
2018-03-30T13:51:14.789Z,44.95
2018-03-30T13:52:14.795Z,44.95
2018-03-30T13:53:14.814Z,45.91
2018-03-30T13:54:14.836Z,45.43
2018-03-30T13:55:14.847Z,45.62
2018-03-30T13:56:14.836Z,45.72
2018-03-30T13:57:14.824Z,45.91
2018-03-30T13:58:14.839Z,45.91
2018-03-30T13:59:14.842Z,44.86
2018-03-30T14:00:14.845Z,45.15
2018-03-30T14:01:14.856Z,45.05
2018-03-30T14:02:14.859Z,44.76
2018-03-30T14:03:14.864Z,44.95
2018-03-30T14:04:14.878Z,44.98
2018-03-30T14:05:14.878Z,44.79
2018-03-30T14:06:14.886Z,43.83
2018-03-30T14:07:14.918Z,44.21
2018-03-30T14:08:14.897Z,44.02
2018-03-30T14:09:15.001Z,44.40
2018-03-30T14:10:14.908Z,43.92
2018-03-30T14:11:14.917Z,43.83
2018-03-30T14:12:14.921Z,43.83
2018-03-30T14:13:14.929Z,43.80
2018-03-30T14:14:14.938Z,44.02
2018-03-30T14:15:14.943Z,43.92
2018-03-30T14:16:14.952Z,43.92
2018-03-30T14:17:14.970Z,43.92
2018-03-30T14:18:14.961Z,43.92
2018-03-30T14:19:15.016Z,43.92
2018-03-30T14:20:15.015Z,44.50
2018-03-30T14:21:15.001Z,43.92
2018-03-30T14:22:14.991Z,43.92
2018-03-30T14:23:15.001Z,44.40
2018-03-30T14:24:14.995Z,44.40
2018-03-30T14:25:15.769Z,44.40
2018-03-30T14:26:15.014Z,45.07
2018-03-30T14:27:15.017Z,44.88
2018-03-30T14:28:15.047Z,44.88
2018-03-30T14:29:15.124Z,45.05
2018-03-30T14:30:15.067Z,45.07
2018-03-30T14:31:15.051Z,44.88
2018-03-30T14:32:15.057Z,44.69
2018-03-30T14:33:15.081Z,45.07
2018-03-30T14:34:15.098Z,45.17
2018-03-30T14:35:15.080Z,45.26
2018-03-30T14:36:15.109Z,45.53
2018-03-30T14:37:15.083Z,44.98
2018-03-30T14:38:15.099Z,44.98
2018-03-30T14:39:15.129Z,44.50
2018-03-30T14:40:15.112Z,44.98
2018-03-30T14:41:15.107Z,44.98
2018-03-30T14:42:15.108Z,45.07
2018-03-30T14:43:15.226Z,44.88
2018-03-30T14:44:15.124Z,44.98
2018-03-30T14:45:15.131Z,45.17
2018-03-30T14:46:15.136Z,45.07
2018-03-30T14:47:15.146Z,45.45
2018-03-30T14:48:15.150Z,46.03
2018-03-30T14:49:15.168Z,45.17
2018-03-30T14:50:15.162Z,44.88
2018-03-30T14:51:15.314Z,45.17
2018-03-30T14:52:15.289Z,45.36
2018-03-30T14:53:15.283Z,45.94
2018-03-30T14:54:15.190Z,45.81
2018-03-30T14:55:15.193Z,45.91
2018-03-30T14:56:15.202Z,45.94
2018-03-30T14:57:15.211Z,46.39
2018-03-30T14:58:15.211Z,46.10
2018-03-30T14:59:15.221Z,45.91
2018-03-30T15:00:15.213Z,45.84
2018-03-30T15:01:15.235Z,45.81
2018-03-30T15:02:15.230Z,45.91
2018-03-30T15:03:15.240Z,46.41
2018-03-30T15:04:15.804Z,46.10
2018-03-30T15:05:15.253Z,46.87
2018-03-30T15:06:15.249Z,46.87
2018-03-30T15:07:15.266Z,47.06
2018-03-30T15:08:15.426Z,47.06
2018-03-30T15:09:15.275Z,47.34
2018-03-30T15:10:15.281Z,47.44
2018-03-30T15:11:15.288Z,47.16
2018-03-30T15:12:15.290Z,47.44
2018-03-30T15:13:15.301Z,47.53
2018-03-30T15:14:15.300Z,48.02